Observations for NORMAN WESTHEIMER, OK (OUN)

KOUN 171853Z 14009KT 10SM SCT100 32/21 A2999
KOUN 171645Z 09007KT 10SM SCT038 SCT050 BKN120 26/22 A3003  
KOUN 171549Z 07009KT 4SM -RA SCT050 SCT065 OVC090 26/21 A3003   
KOUN 171445Z 13008KT 10SM SCT065 BKN075 28/21 A3002 
KOUN 171352Z 10008KT 10SM BKN095 27/22 A3002
KOUN 171251Z 10009KT 10SM FEW150 26/22 A3000
KOUN 171235Z AUTO 10008KT 10SM CLR 25/22 A3000 RMK AO2 LTG DSNT SE T02520225
KOUN 171215Z AUTO 09008KT 10SM CLR 25/22 A3000 RMK AO2 LTG DSNT E T02460222 
KOUN 171155Z AUTO 08008KT 10SM CLR 24/22 A3000 RMK AO2 T02440223 10282 20244
KOUN 171135Z AUTO 08010KT 10SM CLR 25/22 A2999 RMK AO2 T02490220
KOUN 171115Z AUTO 08009KT 10SM CLR 25/22 A2999 RMK AO2 LTG DSNT NE T02520219
KOUN 171055Z AUTO 14003KT 10SM CLR 25/22 A2998 RMK AO2 T02540220
KOUN 171035Z AUTO 15003KT 10SM CLR 26/22 A2998 RMK AO2 LTG DSNT E T02580221 
KOUN 171015Z AUTO 12004KT 10SM CLR 25/22 A2998 RMK AO2 LTG DSNT NE AND E T02540224  
KOUN 170955Z AUTO 12003KT 10SM CLR 25/22 A2998 RMK AO2 T02540225
KOUN 170935Z AUTO 00000KT 10SM SCT090 25/23 A2998 RMK AO2 T02520226 
KOUN 170915Z AUTO 01003KT 10SM SCT090 25/22 A2998 RMK AO2 T02470223 
KOUN 170855Z AUTO 00000KT 10SM CLR 26/22 A2998 RMK AO2 T02620223
KOUN 170835Z AUTO 00000KT 10SM CLR 27/22 A2997 RMK AO2 T02670223
KOUN 170815Z AUTO 13004KT 10SM SCT090 27/23 A2998 RMK AO2 T02680226 
KOUN 170755Z AUTO 09005KT 10SM SCT090 27/23 A2998 RMK AO2 T02680225 
KOUN 170735Z AUTO 12004KT 10SM CLR 27/23 A2998 RMK AO2 T02720227
KOUN 170715Z AUTO 12005KT 10SM CLR 27/23 A2999 RMK AO2 T02720229
KOUN 170655Z AUTO 11008KT 10SM CLR 28/23 A2999 RMK AO2 T02750229
KOUN 170635Z AUTO 11005KT 10SM CLR 28/23 A2999 RMK AO2 T02760231
KOUN 170615Z AUTO 11007KT 10SM CLR 28/23 A2999 RMK AO2 LTG DSNT NW T02790233
KOUN 170555Z AUTO 09007KT 10SM CLR 28/23 A2999 RMK AO2 T02820233 10337 20281
KOUN 170535Z AUTO 11007KT 10SM CLR 28/23 A2999 RMK AO2 T02850234
KOUN 170515Z AUTO 10007KT 10SM CLR 29/24 A2999 RMK AO2 T02880235
KOUN 170455Z AUTO 11008KT 10SM CLR 29/24 A2999 RMK AO2 T02910236
KOUN 170435Z AUTO 10008KT 10SM CLR 29/24 A2999 RMK AO2 T02940236
KOUN 170415Z AUTO 10007KT 10SM SCT100 30/24 A2999 RMK AO2 T02950235 
KOUN 170355Z AUTO 08008KT 10SM SCT100 SCT120 30/23 A2999 RMK AO2 T02960232  
KOUN 170335Z AUTO 08008KT 10SM BKN110 30/23 A2999 RMK AO2 LTG DSNT W T02960233  
KOUN 170315Z AUTO 08007KT 10SM BKN110 30/23 A2999 RMK AO2 T03010231 
KOUN 170255Z AUTO 08007KT 10SM CLR 30/23 A2998 RMK AO2 T03000232
KOUN 170145Z 07008KT 10SM SCT055 SCT065 31/23 A2996 
KOUN 170045Z 07008KT 10SM FEW050 33/22 A2994
KOUN 162345Z 06008KT 10SM FEW050 SCT150 33/23 A2994 
KOUN 162248Z 10008KT 10SM FEW050 SCT150 35/23 A2994 
KOUN 162145Z 06014KT 10SM SCT065 34/23 A2996
KOUN 162046Z 06014KT 10SM SCT065 34/23 A2998
KOUN 161945Z 06014KT 10SM SCT065 34/23 A3000
KOUN 161847Z 08010KT 10SM SCT050 34/23 A3001